Triumph IV — WBE7581 — position and weather

sailwx.info

Track history (hours):
 
Tides and Currents Weather Stations Pressure Air Temp Water Temp Dewpoint Dewpoint Depression Visibility Wind Speed Wind Dir Waves Ship Positions

Triumph IV

Last reported at 2017-Dec-11 17:00 UTC. Time now 2017-Dec-12 02:38 UTC.
Position N 45°39' W 122°45'.

Length 13 m.

MMSI: 367177660.

Date/timePositionNaut miles runAvg speedWind from/ knotsBaromVisibWave heightAir tempDewpointWater temp
2017-Dec-11 17:00N 45°39' W 122°45'3 5.1
2017-Dec-11 16:27N 45°37' W 122°42'1 2.6
2017-Dec-11 16:00N 45°36' W 122°41'0 0.0
2017-Dec-11 15:18N 45°36' W 122°41'0 0.0
2017-Dec-11 14:54N 45°36' W 122°41'0 0.0
2017-Dec-11 14:30N 45°36' W 122°41'0 0.0
2017-Dec-11 13:57N 45°36' W 122°41'0 0.0
2017-Dec-11 13:30N 45°36' W 122°41'0 0.0
2017-Dec-11 13:00N 45°36' W 122°41'0 0.0
2017-Dec-11 12:27N 45°36' W 122°41'0 0.0
2017-Dec-11 11:51N 45°36' W 122°41'0 0.0
2017-Dec-11 11:27N 45°36' W 122°41'0 0.0
2017-Dec-11 11:00N 45°36' W 122°41'0 0.0
2017-Dec-11 10:27N 45°36' W 122°41'0 0.0
2017-Dec-11 09:54N 45°36' W 122°41'0 0.0
2017-Dec-11 09:30N 45°36' W 122°41'0 0.0
2017-Dec-11 08:57N 45°36' W 122°41'1 1.8
2017-Dec-11 08:12N 45°37' W 122°43'211.3
2017-Dec-11 08:00N 45°39' W 122°45'0 0.2
2017-Dec-11 07:25N 45°39' W 122°45'3 7.9
2017-Dec-11 07:00N 45°37' W 122°41'0 0.4
2017-Dec-11 06:30N 45°36' W 122°41'0 0.0
2017-Dec-11 06:00N 45°36' W 122°41'0 0.0
2017-Dec-11 05:24N 45°36' W 122°41'0 0.0
2017-Dec-11 05:00N 45°36' W 122°41'0 0.0
2017-Dec-11 04:30N 45°36' W 122°41'0 0.0
2017-Dec-11 04:00N 45°36' W 122°41'0 0.0
2017-Dec-11 03:30N 45°36' W 122°41'0 0.0
2017-Dec-11 03:00N 45°36' W 122°41'0 0.0
2017-Dec-11 02:27N 45°36' W 122°41'0 0.0
2017-Dec-11 01:54N 45°36' W 122°41'0 0.0
2017-Dec-11 01:24N 45°36' W 122°41'0 0.0
2017-Dec-11 01:00N 45°36' W 122°41'0 0.0
2017-Dec-11 00:03N 45°36' W 122°41'0 0.0
2017-Dec-11 00:00N 45°36' W 122°41'0 0.0
2017-Dec-10 23:24N 45°36' W 122°41'0 0.0
2017-Dec-10 22:57N 45°36' W 122°41'0 0.0
2017-Dec-10 22:27N 45°36' W 122°41'0 0.0
2017-Dec-10 22:00N 45°36' W 122°41'0 0.0
2017-Dec-10 21:18N 45°36' W 122°41'1 3.3
2017-Dec-10 20:59N 45°36' W 122°40'1 2.6
2017-Dec-10 20:29N 45°36' W 122°38'611.7
2017-Dec-10 20:00N 45°39' W 122°45'1 1.8
2017-Dec-10 19:15N 45°40' W 122°46'1 3.3
2017-Dec-10 19:00N 45°41' W 122°46'1 1.5
2017-Dec-10 18:29N 45°42' W 122°46'2 4.3
2017-Dec-10 18:00N 45°39' W 122°46'1 1.8
2017-Dec-10 17:27N 45°39' W 122°45'2 4.9
2017-Dec-10 17:00N 45°41' W 122°46'2 3.0
2017-Dec-10 16:30N 45°39' W 122°46'4 7.8
2017-Dec-10 16:00N 45°37' W 122°41'0 0.6
2017-Dec-10 15:29N 45°36' W 122°41'0 0.0
2017-Dec-10 14:56N 45°36' W 122°41'0 0.0
2017-Dec-10 14:26N 45°36' W 122°41'0 0.0
2017-Dec-10 13:59N 45°36' W 122°41'1 1.4
2017-Dec-10 13:21N 45°37' W 122°42'3 8.8
2017-Dec-10 13:00N 45°39' W 122°45'2 3.9
2017-Dec-10 12:29N 45°38' W 122°43'1 2.9
2017-Dec-10 12:01N 45°39' W 122°45'3 5.7
2017-Dec-10 11:24N 45°36' W 122°41'0 0.0
2017-Dec-10 11:00N 45°36' W 122°41'0 0.0
2017-Dec-10 10:27N 45°36' W 122°41'0 0.0
2017-Dec-10 10:00N 45°36' W 122°41'0 0.0
2017-Dec-10 09:24N 45°36' W 122°41'0 0.0
2017-Dec-10 09:00N 45°36' W 122°41'0 0.0
2017-Dec-10 08:30N 45°36' W 122°41'0 0.0
2017-Dec-10 08:00N 45°36' W 122°41'0 0.0
2017-Dec-10 07:30N 45°36' W 122°41'0 0.0
2017-Dec-10 07:00N 45°36' W 122°41'0 0.0
2017-Dec-10 06:18N 45°36' W 122°41'0 0.0
2017-Dec-10 06:00N 45°36' W 122°41'0 0.0
2017-Dec-10 05:30N 45°36' W 122°41'0 0.0
2017-Dec-10 04:54N 45°36' W 122°41'0 0.0
2017-Dec-10 04:30N 45°36' W 122°41'0 0.0
2017-Dec-10 04:00N 45°36' W 122°41'0 0.0
2017-Dec-10 03:27N 45°36' W 122°41'0 0.0
2017-Dec-10 02:57N 45°36' W 122°41'0 0.0
2017-Dec-10 02:30N 45°36' W 122°41'0 0.0
2017-Dec-10 01:54N 45°36' W 122°41'0 0.0
2017-Dec-10 01:24N 45°36' W 122°41'0 0.0
2017-Dec-10 00:51N 45°36' W 122°41'0 0.0
2017-Dec-10 00:30N 45°36' W 122°41'0 0.0
2017-Dec-09 23:57N 45°36' W 122°41'0 0.0
2017-Dec-09 23:21N 45°36' W 122°41'0 0.0
2017-Dec-09 23:00N 45°36' W 122°41'0 0.0
2017-Dec-09 22:21N 45°36' W 122°41'0 0.0
2017-Dec-09 22:00N 45°36' W 122°41'0 0.0
2017-Dec-09 21:30N 45°36' W 122°41'0 0.0
2017-Dec-09 20:54N 45°36' W 122°41'0 0.0
2017-Dec-09 20:27N 45°36' W 122°41'0 0.0
2017-Dec-09 20:00N 45°36' W 122°41'0 0.0
2017-Dec-09 19:27N 45°36' W 122°41'0 0.0
2017-Dec-09 18:27N 45°36' W 122°41'0 0.0
2017-Dec-09 18:00N 45°36' W 122°41'0 0.0
2017-Dec-09 17:21N 45°36' W 122°41'0 0.0
2017-Dec-09 16:36N 45°36' W 122°41'0 0.0
2017-Dec-09 15:30N 45°36' W 122°41'0 0.0
2017-Dec-09 14:36N 45°36' W 122°41'0 0.0
2017-Dec-09 14:09N 45°36' W 122°41'1 2.4
2017-Dec-09 13:53N 45°37' W 122°42'3 7.9
2017-Dec-09 13:29N 45°39' W 122°45'0 0.5
2017-Dec-09 12:57N 45°39' W 122°45'0 0.0
2017-Dec-09 12:20N 45°39' W 122°45'3 8.4
2017-Dec-09 12:00N 45°37' W 122°42'1 1.4
2017-Dec-09 11:26N 45°36' W 122°41'0 0.0
2017-Dec-09 10:56N 45°36' W 122°41'0 0.0
2017-Dec-09 10:26N 45°36' W 122°41'0 0.0
2017-Dec-09 09:44N 45°36' W 122°41'0 0.0
2017-Dec-09 09:20N 45°36' W 122°41'0 0.0
2017-Dec-09 08:20N 45°36' W 122°41'0 0.0
2017-Dec-09 07:50N 45°36' W 122°41'0 0.0
2017-Dec-09 07:20N 45°36' W 122°41'0 0.0
2017-Dec-09 06:56N 45°36' W 122°41'0 0.0
2017-Dec-09 06:08N 45°36' W 122°41'0 0.0
2017-Dec-09 05:38N 45°36' W 122°41'0 0.0
2017-Dec-09 05:26N 45°36' W 122°41'0 0.0
2017-Dec-09 04:56N 45°36' W 122°41'0 0.0
2017-Dec-09 04:20N 45°36' W 122°41'0 0.0
2017-Dec-09 03:50N 45°36' W 122°41'0 0.0
2017-Dec-09 03:26N 45°36' W 122°41'0 0.0
2017-Dec-09 02:56N 45°36' W 122°41'0 0.0
2017-Dec-09 02:29N 45°36' W 122°41'0 0.0
2017-Dec-09 02:00N 45°36' W 122°41'0 0.0
2017-Dec-09 01:26N 45°36' W 122°41'0 0.0
2017-Dec-09 00:26N 45°36' W 122°41'0 0.0
2017-Dec-08 23:59N 45°36' W 122°41'0 0.0
2017-Dec-08 23:11N 45°36' W 122°41'0 0.0
2017-Dec-08 22:56N 45°36' W 122°41'0 0.0
2017-Dec-08 22:29N 45°36' W 122°41'0 0.0
2017-Dec-08 21:59N 45°36' W 122°41'0 0.0
2017-Dec-08 21:26N 45°36' W 122°41'0 0.0
2017-Dec-08 20:56N 45°36' W 122°41'0 0.0
2017-Dec-08 20:26N 45°36' W 122°41'0 0.0
2017-Dec-08 19:59N 45°36' W 122°41'0 0.0
2017-Dec-08 19:26N 45°36' W 122°41'0 0.0
2017-Dec-08 18:53N 45°36' W 122°41'0 0.0
2017-Dec-08 18:23N 45°36' W 122°41'0 0.0
2017-Dec-08 17:50N 45°36' W 122°41'0 0.0
2017-Dec-08 17:29N 45°36' W 122°41'0 0.0
2017-Dec-08 16:50N 45°36' W 122°41'0 0.0
2017-Dec-08 16:14N 45°36' W 122°41'0 0.0
2017-Dec-08 15:56N 45°36' W 122°41'0 0.0
2017-Dec-08 15:26N 45°36' W 122°41'0 0.0
2017-Dec-08 14:50N 45°36' W 122°41'0 0.0
2017-Dec-08 14:20N 45°36' W 122°41'0 0.0
2017-Dec-08 13:56N 45°36' W 122°41'0 0.0
2017-Dec-08 13:26N 45°36' W 122°41'0 0.0
2017-Dec-08 12:59N 45°36' W 122°41'0 0.0
2017-Dec-08 12:26N 45°36' W 122°41'0 0.0
2017-Dec-08 11:56N 45°36' W 122°41'0 0.0
2017-Dec-08 11:26N 45°36' W 122°41'0 0.0
2017-Dec-08 10:50N 45°36' W 122°41'0 0.0
2017-Dec-08 10:23N 45°36' W 122°41'0 0.0
2017-Dec-08 09:53N 45°36' W 122°41'0 0.0
2017-Dec-08 09:17N 45°36' W 122°41'0 0.0
2017-Dec-08 08:26N 45°36' W 122°41'0 0.0
2017-Dec-08 07:50N 45°36' W 122°41'0 0.0
2017-Dec-08 07:26N 45°36' W 122°41'0 0.0
2017-Dec-08 06:44N 45°36' W 122°41'0 0.0
2017-Dec-08 06:26N 45°36' W 122°41'0 0.0
2017-Dec-08 05:59N 45°36' W 122°41'0 0.0
2017-Dec-08 05:08N 45°36' W 122°41'0 0.0
2017-Dec-08 03:35N 45°36' W 122°41'0 4.2
2017-Dec-08 03:30N 45°37' W 122°41'4 7.5
2017-Dec-08 03:00N 45°39' W 122°46'3 4.9
2017-Dec-08 02:30N 45°37' W 122°43'2 2.9
2017-Dec-08 01:58N 45°36' W 122°41'0 0.0
2017-Dec-08 01:28N 45°36' W 122°41'0 0.0
2017-Dec-08 00:58N 45°36' W 122°41'0 0.0
2017-Dec-08 00:25N 45°36' W 122°41'1 2.0
2017-Dec-08 00:00N 45°37' W 122°42'5 9.6
2017-Dec-07 23:30N 45°41' W 122°46'4 7.9
2017-Dec-07 23:00N 45°37' W 122°43'2 2.0
2017-Dec-07 22:10N 45°36' W 122°41'0 0.0
2017-Dec-07 21:43N 45°36' W 122°41'0 0.0
2017-Dec-07 21:28N 45°36' W 122°41'0 0.0
2017-Dec-07 20:31N 45°36' W 122°41'0 0.0
2017-Dec-07 20:16N 45°36' W 122°41'1 2.5
2017-Dec-07 20:00N 45°37' W 122°42'4 7.6
2017-Dec-07 19:29N 45°40' W 122°46'1 2.6
2017-Dec-07 18:59N 45°41' W 122°46'0 0.0
2017-Dec-07 18:26N 45°41' W 122°46'0 0.0
2017-Dec-07 17:53N 45°41' W 122°46'2 2.6
2017-Dec-07 16:58N 45°39' W 122°45'2 4.2
2017-Dec-07 16:30N 45°37' W 122°43'2 2.3
2017-Dec-07 15:46N 45°36' W 122°41'0 0.0
2017-Dec-07 15:25N 45°36' W 122°41'0 0.0
2017-Dec-07 14:58N 45°36' W 122°41'0 0.0
2017-Dec-07 14:25N 45°36' W 122°41'0 0.0
2017-Dec-07 13:58N 45°36' W 122°41'0 0.0
2017-Dec-07 13:25N 45°36' W 122°41'0 0.0
2017-Dec-07 12:58N 45°36' W 122°41'0 0.0
2017-Dec-07 12:25N 45°36' W 122°41'0 0.0
2017-Dec-07 11:58N 45°36' W 122°41'0 0.0
2017-Dec-07 11:25N 45°36' W 122°41'0 0.0
2017-Dec-07 10:52N 45°36' W 122°41'0 0.0
2017-Dec-07 10:25N 45°36' W 122°41'0 0.0
2017-Dec-07 09:43N 45°36' W 122°41'0 0.0
2017-Dec-07 09:22N 45°36' W 122°41'0 0.0
2017-Dec-07 08:55N 45°36' W 122°41'0 0.0
2017-Dec-07 08:22N 45°36' W 122°41'0 0.0
2017-Dec-07 07:55N 45°36' W 122°41'0 0.0
2017-Dec-07 07:28N 45°36' W 122°41'0 0.0
2017-Dec-07 06:58N 45°36' W 122°41'0 0.0
2017-Dec-07 06:13N 45°36' W 122°41'0 0.0
2017-Dec-07 05:49N 45°36' W 122°41'0 0.0
2017-Dec-07 05:22N 45°36' W 122°41'0 0.0
2017-Dec-07 04:58N 45°36' W 122°41'0 0.0
2017-Dec-07 04:19N 45°36' W 122°41'0 0.0
2017-Dec-07 03:58N 45°36' W 122°41'0 0.0
2017-Dec-07 02:37N 45°36' W 122°41'0 0.0
2017-Dec-07 02:25N 45°36' W 122°41'2 5.6
2017-Dec-07 02:00N 45°38' W 122°44'2 3.7
2017-Dec-07 01:30N 45°39' W 122°45'610.9
2017-Dec-07 00:56N 45°36' W 122°38'511.7
2017-Dec-07 00:31N 45°38' W 122°44'3 5.9
2017-Dec-06 23:58N 45°41' W 122°46'2 3.5
2017-Dec-06 23:30N 45°40' W 122°46'2 3.3
2017-Dec-06 23:00N 45°41' W 122°46'1 2.6
2017-Dec-06 22:30N 45°40' W 122°46'1 2.4
2017-Dec-06 21:59N 45°41' W 122°46'0 0.1
2017-Dec-06 21:30N 45°41' W 122°46'1 2.3
2017-Dec-06 21:00N 45°40' W 122°46'  
2017-Dec-04 10:23N 45°36' W 122°41'0 0.0
2017-Dec-04 09:59N 45°36' W 122°41'0 0.0
2017-Dec-04 09:29N 45°36' W 122°41'0 0.0
2017-Dec-04 08:32N 45°36' W 122°41'0 0.0
2017-Dec-04 08:26N 45°36' W 122°41'0 0.0
2017-Dec-04 07:47N 45°36' W 122°41'0 0.0
2017-Dec-04 07:29N 45°36' W 122°41'0 0.0
2017-Dec-04 06:38N 45°36' W 122°41'0 0.0
2017-Dec-04 06:29N 45°36' W 122°41'0 0.0
2017-Dec-04 05:56N 45°36' W 122°41'0 0.0
2017-Dec-04 05:29N 45°36' W 122°41'0 0.0
2017-Dec-04 04:57N 45°36' W 122°41'0 0.0
2017-Dec-04 04:29N 45°36' W 122°41'0 0.0
2017-Dec-04 03:56N 45°36' W 122°41'0 0.0
2017-Dec-04 03:26N 45°36' W 122°41'0 0.0
2017-Dec-04 02:59N 45°36' W 122°41'0 0.0
2017-Dec-04 02:17N 45°36' W 122°41'0 0.0
2017-Dec-04 01:59N 45°36' W 122°41'0 0.0
2017-Dec-04 01:29N 45°36' W 122°41'0 0.0
2017-Dec-04 01:00N 45°36' W 122°41'0 0.0
2017-Dec-04 00:14N 45°36' W 122°41'0 0.0
2017-Dec-03 23:59N 45°36' W 122°41'0 0.0
2017-Dec-03 23:29N 45°36' W 122°41'0 0.0
2017-Dec-03 22:59N 45°36' W 122°41'0 0.0
2017-Dec-03 21:47N 45°36' W 122°41'0 0.0
2017-Dec-03 21:26N 45°36' W 122°41'0 0.0
2017-Dec-03 20:53N 45°36' W 122°41'0 0.0
2017-Dec-03 20:20N 45°36' W 122°41'0 0.0
2017-Dec-03 19:50N 45°36' W 122°41'0 0.0
2017-Dec-03 19:29N 45°36' W 122°41'0 0.0
2017-Dec-03 18:56N 45°36' W 122°41'0 0.0
2017-Dec-03 18:23N 45°36' W 122°41'0 0.0
2017-Dec-03 17:59N 45°36' W 122°41'0 0.0
2017-Dec-03 17:29N 45°36' W 122°41'0 0.0
2017-Dec-03 16:56N 45°36' W 122°41'0 0.0
2017-Dec-03 16:26N 45°36' W 122°41'0 0.0
2017-Dec-03 15:59N 45°36' W 122°41'0 0.0
2017-Dec-03 15:27N 45°36' W 122°41'0 0.0
2017-Dec-03 14:59N 45°36' W 122°41'0 0.0
2017-Dec-03 14:29N 45°36' W 122°41'0 0.0
2017-Dec-03 13:56N 45°36' W 122°41'0 0.0
2017-Dec-03 13:26N 45°36' W 122°41'0 0.0
2017-Dec-03 12:56N 45°36' W 122°41'0 0.0
2017-Dec-03 12:08N 45°36' W 122°41'0 0.0
2017-Dec-03 11:59N 45°36' W 122°41'0 0.0
2017-Dec-03 11:20N 45°36' W 122°41'0 0.0
2017-Dec-03 10:53N 45°36' W 122°41'0 0.0
2017-Dec-03 10:29N 45°36' W 122°41'0 0.0
2017-Dec-03 09:56N 45°36' W 122°41'0 0.0
2017-Dec-03 09:29N 45°36' W 122°41'0 0.0
2017-Dec-03 08:53N 45°36' W 122°41'0 0.0
2017-Dec-03 08:29N 45°36' W 122°41'0 0.0
2017-Dec-03 07:59N 45°36' W 122°41'0 0.0
2017-Dec-03 07:29N 45°36' W 122°41'0 0.0
2017-Dec-03 06:53N 45°36' W 122°41'0 0.0
2017-Dec-03 06:29N 45°36' W 122°41'0 0.0
2017-Dec-03 05:56N 45°36' W 122°41'0 0.0
2017-Dec-03 05:29N 45°36' W 122°41'0 0.0
2017-Dec-03 04:59N 45°36' W 122°41'0 0.0
2017-Dec-03 04:29N 45°36' W 122°41'0 0.0
2017-Dec-03 03:56N 45°36' W 122°41'0 0.0
2017-Dec-03 03:29N 45°36' W 122°41'0 0.0
2017-Dec-03 02:53N 45°36' W 122°41'0 0.0
2017-Dec-03 02:29N 45°36' W 122°41'0 0.0
2017-Dec-03 01:59N 45°36' W 122°41'0 0.0
2017-Dec-03 01:29N 45°36' W 122°41'0 0.0
2017-Dec-03 00:59N 45°36' W 122°41'0 0.0
2017-Dec-03 00:29N 45°36' W 122°41'0 0.0
2017-Dec-02 23:56N 45°36' W 122°41'0 0.0
2017-Dec-02 23:29N 45°36' W 122°41'0 0.0
2017-Dec-02 22:56N 45°36' W 122°41'0 0.0
2017-Dec-02 22:26N 45°36' W 122°41'0 0.0
2017-Dec-02 21:50N 45°36' W 122°41'0 0.0
2017-Dec-02 21:23N 45°36' W 122°41'0 0.0
2017-Dec-02 20:56N 45°36' W 122°41'0 0.0
2017-Dec-02 20:29N 45°36' W 122°41'0 0.0
2017-Dec-02 19:59N 45°36' W 122°41'0 0.0
2017-Dec-02 19:08N 45°36' W 122°41'0 0.0
2017-Dec-02 18:59N 45°36' W 122°41'0 0.0
2017-Dec-02 18:29N 45°36' W 122°41'0 0.0
2017-Dec-02 17:59N 45°36' W 122°41'0 0.0
2017-Dec-02 17:26N 45°36' W 122°41'0 0.0
2017-Dec-02 16:59N 45°36' W 122°41'0 0.0
2017-Dec-02 16:29N 45°36' W 122°41'0 0.0
2017-Dec-02 15:56N 45°36' W 122°41'0 0.0
2017-Dec-02 15:29N 45°36' W 122°41'0 0.0
2017-Dec-02 11:02N 45°36' W 122°41'0 0.0
2017-Dec-02 10:38N 45°36' W 122°41'0 0.0
2017-Dec-02 10:26N 45°36' W 122°41'0 0.0
2017-Dec-02 09:17N 45°36' W 122°41'0 0.0
2017-Dec-02 08:56N 45°36' W 122°41'0 0.0
2017-Dec-02 06:59N 45°36' W 122°41'0 0.0
2017-Dec-02 06:02N 45°36' W 122°41'0 0.0
2017-Dec-02 05:50N 45°36' W 122°41'0 0.0
2017-Dec-02 05:08N 45°36' W 122°41'0 0.0
2017-Dec-02 04:56N 45°36' W 122°41'0 0.0
2017-Dec-02 04:23N 45°36' W 122°41'0 0.0
2017-Dec-02 01:05N 45°36' W 122°41'0 0.0
2017-Dec-02 00:56N 45°36' W 122°41'0 0.0
2017-Dec-02 00:29N 45°36' W 122°41'0 0.0
2017-Dec-01 23:44N 45°36' W 122°41'0 0.0
2017-Dec-01 22:56N 45°36' W 122°41'0 0.0
2017-Dec-01 22:29N 45°36' W 122°41'0 0.0
2017-Dec-01 21:53N 45°36' W 122°41'0 0.0
2017-Dec-01 21:26N 45°36' W 122°41'0 0.0
2017-Dec-01 20:59N 45°36' W 122°41'0 0.0
2017-Dec-01 20:29N 45°36' W 122°41'0 0.0
2017-Dec-01 19:53N 45°36' W 122°41'0 0.0
2017-Dec-01 19:20N 45°36' W 122°41'0 0.0
2017-Dec-01 18:59N 45°36' W 122°41'0 0.0
2017-Dec-01 18:26N 45°36' W 122°41'0 0.0
2017-Dec-01 17:59N 45°36' W 122°41'0 0.0
2017-Dec-01 17:26N 45°36' W 122°41'  
Track history (hours):
 
Tides and Currents Weather Stations Pressure Air Temp Water Temp Dewpoint Dewpoint Depression Visibility Wind Speed Wind Dir Waves Ship Positions

Triumph IV

Last reported at 2017-Dec-11 17:00 UTC. Time now 2017-Dec-12 02:38 UTC.
Position N 45°39' W 122°45'.

Length 13 m.

MMSI: 367177660.

Date/timePositionNaut miles runAvg speedWind from/ knotsBaromVisibWave heightAir tempDewpointWater temp
2017-Dec-11 17:00N 45°39' W 122°45'3 5.1
2017-Dec-11 16:27N 45°37' W 122°42'1 2.6
2017-Dec-11 16:00N 45°36' W 122°41'0 0.0
2017-Dec-11 15:18N 45°36' W 122°41'0 0.0
2017-Dec-11 14:54N 45°36' W 122°41'0 0.0
2017-Dec-11 14:30N 45°36' W 122°41'0 0.0
2017-Dec-11 13:57N 45°36' W 122°41'0 0.0
2017-Dec-11 13:30N 45°36' W 122°41'0 0.0
2017-Dec-11 13:00N 45°36' W 122°41'0 0.0
2017-Dec-11 12:27N 45°36' W 122°41'0 0.0
2017-Dec-11 11:51N 45°36' W 122°41'0 0.0
2017-Dec-11 11:27N 45°36' W 122°41'0 0.0
2017-Dec-11 11:00N 45°36' W 122°41'0 0.0
2017-Dec-11 10:27N 45°36' W 122°41'0 0.0
2017-Dec-11 09:54N 45°36' W 122°41'0 0.0
2017-Dec-11 09:30N 45°36' W 122°41'0 0.0
2017-Dec-11 08:57N 45°36' W 122°41'1 1.8
2017-Dec-11 08:12N 45°37' W 122°43'211.3
2017-Dec-11 08:00N 45°39' W 122°45'0 0.2
2017-Dec-11 07:25N 45°39' W 122°45'3 7.9
2017-Dec-11 07:00N 45°37' W 122°41'0 0.4
2017-Dec-11 06:30N 45°36' W 122°41'0 0.0
2017-Dec-11 06:00N 45°36' W 122°41'0 0.0
2017-Dec-11 05:24N 45°36' W 122°41'0 0.0
2017-Dec-11 05:00N 45°36' W 122°41'0 0.0
2017-Dec-11 04:30N 45°36' W 122°41'0 0.0
2017-Dec-11 04:00N 45°36' W 122°41'0 0.0
2017-Dec-11 03:30N 45°36' W 122°41'0 0.0
2017-Dec-11 03:00N 45°36' W 122°41'0 0.0
2017-Dec-11 02:27N 45°36' W 122°41'0 0.0
2017-Dec-11 01:54N 45°36' W 122°41'0 0.0
2017-Dec-11 01:24N 45°36' W 122°41'0 0.0
2017-Dec-11 01:00N 45°36' W 122°41'0 0.0
2017-Dec-11 00:03N 45°36' W 122°41'0 0.0
2017-Dec-11 00:00N 45°36' W 122°41'0 0.0
2017-Dec-10 23:24N 45°36' W 122°41'0 0.0
2017-Dec-10 22:57N 45°36' W 122°41'0 0.0
2017-Dec-10 22:27N 45°36' W 122°41'0 0.0
2017-Dec-10 22:00N 45°36' W 122°41'0 0.0
2017-Dec-10 21:18N 45°36' W 122°41'1 3.3
2017-Dec-10 20:59N 45°36' W 122°40'1 2.6
2017-Dec-10 20:29N 45°36' W 122°38'611.7
2017-Dec-10 20:00N 45°39' W 122°45'1 1.8
2017-Dec-10 19:15N 45°40' W 122°46'1 3.3
2017-Dec-10 19:00N 45°41' W 122°46'1 1.5
2017-Dec-10 18:29N 45°42' W 122°46'2 4.3
2017-Dec-10 18:00N 45°39' W 122°46'1 1.8
2017-Dec-10 17:27N 45°39' W 122°45'2 4.9
2017-Dec-10 17:00N 45°41' W 122°46'2 3.0
2017-Dec-10 16:30N 45°39' W 122°46'4 7.8
2017-Dec-10 16:00N 45°37' W 122°41'0 0.6
2017-Dec-10 15:29N 45°36' W 122°41'0 0.0
2017-Dec-10 14:56N 45°36' W 122°41'0 0.0
2017-Dec-10 14:26N 45°36' W 122°41'0 0.0
2017-Dec-10 13:59N 45°36' W 122°41'1 1.4
2017-Dec-10 13:21N 45°37' W 122°42'3 8.8
2017-Dec-10 13:00N 45°39' W 122°45'2 3.9
2017-Dec-10 12:29N 45°38' W 122°43'1 2.9
2017-Dec-10 12:01N 45°39' W 122°45'3 5.7
2017-Dec-10 11:24N 45°36' W 122°41'0 0.0
2017-Dec-10 11:00N 45°36' W 122°41'0 0.0
2017-Dec-10 10:27N 45°36' W 122°41'0 0.0
2017-Dec-10 10:00N 45°36' W 122°41'0 0.0
2017-Dec-10 09:24N 45°36' W 122°41'0 0.0
2017-Dec-10 09:00N 45°36' W 122°41'0 0.0
2017-Dec-10 08:30N 45°36' W 122°41'0 0.0
2017-Dec-10 08:00N 45°36' W 122°41'0 0.0
2017-Dec-10 07:30N 45°36' W 122°41'0 0.0
2017-Dec-10 07:00N 45°36' W 122°41'0 0.0
2017-Dec-10 06:18N 45°36' W 122°41'0 0.0
2017-Dec-10 06:00N 45°36' W 122°41'0 0.0
2017-Dec-10 05:30N 45°36' W 122°41'0 0.0
2017-Dec-10 04:54N 45°36' W 122°41'0 0.0
2017-Dec-10 04:30N 45°36' W 122°41'0 0.0
2017-Dec-10 04:00N 45°36' W 122°41'0 0.0
2017-Dec-10 03:27N 45°36' W 122°41'0 0.0
2017-Dec-10 02:57N 45°36' W 122°41'0 0.0
2017-Dec-10 02:30N 45°36' W 122°41'0 0.0
2017-Dec-10 01:54N 45°36' W 122°41'0 0.0
2017-Dec-10 01:24N 45°36' W 122°41'0 0.0
2017-Dec-10 00:51N 45°36' W 122°41'0 0.0
2017-Dec-10 00:30N 45°36' W 122°41'0 0.0
2017-Dec-09 23:57N 45°36' W 122°41'0 0.0
2017-Dec-09 23:21N 45°36' W 122°41'0 0.0
2017-Dec-09 23:00N 45°36' W 122°41'0 0.0
2017-Dec-09 22:21N 45°36' W 122°41'0 0.0
2017-Dec-09 22:00N 45°36' W 122°41'0 0.0
2017-Dec-09 21:30N 45°36' W 122°41'0 0.0
2017-Dec-09 20:54N 45°36' W 122°41'0 0.0
2017-Dec-09 20:27N 45°36' W 122°41'0 0.0
2017-Dec-09 20:00N 45°36' W 122°41'0 0.0
2017-Dec-09 19:27N 45°36' W 122°41'0 0.0
2017-Dec-09 18:27N 45°36' W 122°41'0 0.0
2017-Dec-09 18:00N 45°36' W 122°41'0 0.0
2017-Dec-09 17:21N 45°36' W 122°41'0 0.0
2017-Dec-09 16:36N 45°36' W 122°41'0 0.0
2017-Dec-09 15:30N 45°36' W 122°41'0 0.0
2017-Dec-09 14:36N 45°36' W 122°41'0 0.0
2017-Dec-09 14:09N 45°36' W 122°41'1 2.4
2017-Dec-09 13:53N 45°37' W 122°42'3 7.9
2017-Dec-09 13:29N 45°39' W 122°45'0 0.5
2017-Dec-09 12:57N 45°39' W 122°45'0 0.0
2017-Dec-09 12:20N 45°39' W 122°45'3 8.4
2017-Dec-09 12:00N 45°37' W 122°42'1 1.4
2017-Dec-09 11:26N 45°36' W 122°41'0 0.0
2017-Dec-09 10:56N 45°36' W 122°41'0 0.0
2017-Dec-09 10:26N 45°36' W 122°41'0 0.0
2017-Dec-09 09:44N 45°36' W 122°41'0 0.0
2017-Dec-09 09:20N 45°36' W 122°41'0 0.0
2017-Dec-09 08:20N 45°36' W 122°41'0 0.0
2017-Dec-09 07:50N 45°36' W 122°41'0 0.0
2017-Dec-09 07:20N 45°36' W 122°41'0 0.0
2017-Dec-09 06:56N 45°36' W 122°41'0 0.0
2017-Dec-09 06:08N 45°36' W 122°41'0 0.0
2017-Dec-09 05:38N 45°36' W 122°41'0 0.0
2017-Dec-09 05:26N 45°36' W 122°41'0 0.0
2017-Dec-09 04:56N 45°36' W 122°41'0 0.0
2017-Dec-09 04:20N 45°36' W 122°41'0 0.0
2017-Dec-09 03:50N 45°36' W 122°41'0 0.0
2017-Dec-09 03:26N 45°36' W 122°41'0 0.0
2017-Dec-09 02:56N 45°36' W 122°41'0 0.0
2017-Dec-09 02:29N 45°36' W 122°41'0 0.0
2017-Dec-09 02:00N 45°36' W 122°41'0 0.0
2017-Dec-09 01:26N 45°36' W 122°41'0 0.0
2017-Dec-09 00:26N 45°36' W 122°41'0 0.0
2017-Dec-08 23:59N 45°36' W 122°41'0 0.0
2017-Dec-08 23:11N 45°36' W 122°41'0 0.0
2017-Dec-08 22:56N 45°36' W 122°41'0 0.0
2017-Dec-08 22:29N 45°36' W 122°41'0 0.0
2017-Dec-08 21:59N 45°36' W 122°41'0 0.0
2017-Dec-08 21:26N 45°36' W 122°41'0 0.0
2017-Dec-08 20:56N 45°36' W 122°41'0 0.0
2017-Dec-08 20:26N 45°36' W 122°41'0 0.0
2017-Dec-08 19:59N 45°36' W 122°41'0 0.0
2017-Dec-08 19:26N 45°36' W 122°41'0 0.0
2017-Dec-08 18:53N 45°36' W 122°41'0 0.0
2017-Dec-08 18:23N 45°36' W 122°41'0 0.0
2017-Dec-08 17:50N 45°36' W 122°41'0 0.0
2017-Dec-08 17:29N 45°36' W 122°41'0 0.0
2017-Dec-08 16:50N 45°36' W 122°41'0 0.0
2017-Dec-08 16:14N 45°36' W 122°41'0 0.0
2017-Dec-08 15:56N 45°36' W 122°41'0 0.0
2017-Dec-08 15:26N 45°36' W 122°41'0 0.0
2017-Dec-08 14:50N 45°36' W 122°41'0 0.0
2017-Dec-08 14:20N 45°36' W 122°41'0 0.0
2017-Dec-08 13:56N 45°36' W 122°41'0 0.0
2017-Dec-08 13:26N 45°36' W 122°41'0 0.0
2017-Dec-08 12:59N 45°36' W 122°41'0 0.0
2017-Dec-08 12:26N 45°36' W 122°41'0 0.0
2017-Dec-08 11:56N 45°36' W 122°41'0 0.0
2017-Dec-08 11:26N 45°36' W 122°41'0 0.0
2017-Dec-08 10:50N 45°36' W 122°41'0 0.0
2017-Dec-08 10:23N 45°36' W 122°41'0 0.0
2017-Dec-08 09:53N 45°36' W 122°41'0 0.0
2017-Dec-08 09:17N 45°36' W 122°41'0 0.0
2017-Dec-08 08:26N 45°36' W 122°41'0 0.0
2017-Dec-08 07:50N 45°36' W 122°41'0 0.0
2017-Dec-08 07:26N 45°36' W 122°41'0 0.0
2017-Dec-08 06:44N 45°36' W 122°41'0 0.0
2017-Dec-08 06:26N 45°36' W 122°41'0 0.0
2017-Dec-08 05:59N 45°36' W 122°41'0 0.0
2017-Dec-08 05:08N 45°36' W 122°41'0 0.0
2017-Dec-08 03:35N 45°36' W 122°41'0 4.2
2017-Dec-08 03:30N 45°37' W 122°41'4 7.5
2017-Dec-08 03:00N 45°39' W 122°46'3 4.9
2017-Dec-08 02:30N 45°37' W 122°43'2 2.9
2017-Dec-08 01:58N 45°36' W 122°41'0 0.0
2017-Dec-08 01:28N 45°36' W 122°41'0 0.0
2017-Dec-08 00:58N 45°36' W 122°41'0 0.0
2017-Dec-08 00:25N 45°36' W 122°41'1 2.0
2017-Dec-08 00:00N 45°37' W 122°42'5 9.6
2017-Dec-07 23:30N 45°41' W 122°46'4 7.9
2017-Dec-07 23:00N 45°37' W 122°43'2 2.0
2017-Dec-07 22:10N 45°36' W 122°41'0 0.0
2017-Dec-07 21:43N 45°36' W 122°41'0 0.0
2017-Dec-07 21:28N 45°36' W 122°41'0 0.0
2017-Dec-07 20:31N 45°36' W 122°41'0 0.0
2017-Dec-07 20:16N 45°36' W 122°41'1 2.5
2017-Dec-07 20:00N 45°37' W 122°42'4 7.6
2017-Dec-07 19:29N 45°40' W 122°46'1 2.6
2017-Dec-07 18:59N 45°41' W 122°46'0 0.0
2017-Dec-07 18:26N 45°41' W 122°46'0 0.0
2017-Dec-07 17:53N 45°41' W 122°46'2 2.6
2017-Dec-07 16:58N 45°39' W 122°45'2 4.2
2017-Dec-07 16:30N 45°37' W 122°43'2 2.3
2017-Dec-07 15:46N 45°36' W 122°41'0 0.0
2017-Dec-07 15:25N 45°36' W 122°41'0 0.0
2017-Dec-07 14:58N 45°36' W 122°41'0 0.0
2017-Dec-07 14:25N 45°36' W 122°41'0 0.0
2017-Dec-07 13:58N 45°36' W 122°41'0 0.0
2017-Dec-07 13:25N 45°36' W 122°41'0 0.0
2017-Dec-07 12:58N 45°36' W 122°41'0 0.0
2017-Dec-07 12:25N 45°36' W 122°41'0 0.0
2017-Dec-07 11:58N 45°36' W 122°41'0 0.0
2017-Dec-07 11:25N 45°36' W 122°41'0 0.0
2017-Dec-07 10:52N 45°36' W 122°41'0 0.0
2017-Dec-07 10:25N 45°36' W 122°41'0 0.0
2017-Dec-07 09:43N 45°36' W 122°41'0 0.0
2017-Dec-07 09:22N 45°36' W 122°41'0 0.0
2017-Dec-07 08:55N 45°36' W 122°41'0 0.0
2017-Dec-07 08:22N 45°36' W 122°41'0 0.0
2017-Dec-07 07:55N 45°36' W 122°41'0 0.0
2017-Dec-07 07:28N 45°36' W 122°41'0 0.0
2017-Dec-07 06:58N 45°36' W 122°41'0 0.0
2017-Dec-07 06:13N 45°36' W 122°41'0 0.0
2017-Dec-07 05:49N 45°36' W 122°41'0 0.0
2017-Dec-07 05:22N 45°36' W 122°41'0 0.0
2017-Dec-07 04:58N 45°36' W 122°41'0 0.0
2017-Dec-07 04:19N 45°36' W 122°41'0 0.0
2017-Dec-07 03:58N 45°36' W 122°41'0 0.0
2017-Dec-07 02:37N 45°36' W 122°41'0 0.0
2017-Dec-07 02:25N 45°36' W 122°41'2 5.6
2017-Dec-07 02:00N 45°38' W 122°44'2 3.7
2017-Dec-07 01:30N 45°39' W 122°45'610.9
2017-Dec-07 00:56N 45°36' W 122°38'511.7
2017-Dec-07 00:31N 45°38' W 122°44'3 5.9
2017-Dec-06 23:58N 45°41' W 122°46'2 3.5
2017-Dec-06 23:30N 45°40' W 122°46'2 3.3
2017-Dec-06 23:00N 45°41' W 122°46'1 2.6
2017-Dec-06 22:30N 45°40' W 122°46'1 2.4
2017-Dec-06 21:59N 45°41' W 122°46'0 0.1
2017-Dec-06 21:30N 45°41' W 122°46'1 2.3
2017-Dec-06 21:00N 45°40' W 122°46'  
2017-Dec-04 10:23N 45°36' W 122°41'0 0.0
2017-Dec-04 09:59N 45°36' W 122°41'0 0.0
2017-Dec-04 09:29N 45°36' W 122°41'0 0.0
2017-Dec-04 08:32N 45°36' W 122°41'0 0.0
2017-Dec-04 08:26N 45°36' W 122°41'0 0.0
2017-Dec-04 07:47N 45°36' W 122°41'0 0.0
2017-Dec-04 07:29N 45°36' W 122°41'0 0.0
2017-Dec-04 06:38N 45°36' W 122°41'0 0.0
2017-Dec-04 06:29N 45°36' W 122°41'0 0.0
2017-Dec-04 05:56N 45°36' W 122°41'0 0.0
2017-Dec-04 05:29N 45°36' W 122°41'0 0.0
2017-Dec-04 04:57N 45°36' W 122°41'0 0.0
2017-Dec-04 04:29N 45°36' W 122°41'0 0.0
2017-Dec-04 03:56N 45°36' W 122°41'0 0.0
2017-Dec-04 03:26N 45°36' W 122°41'0 0.0
2017-Dec-04 02:59N 45°36' W 122°41'0 0.0
2017-Dec-04 02:17N 45°36' W 122°41'0 0.0
2017-Dec-04 01:59N 45°36' W 122°41'0 0.0
2017-Dec-04 01:29N 45°36' W 122°41'0 0.0
2017-Dec-04 01:00N 45°36' W 122°41'0 0.0
2017-Dec-04 00:14N 45°36' W 122°41'0 0.0
2017-Dec-03 23:59N 45°36' W 122°41'0 0.0
2017-Dec-03 23:29N 45°36' W 122°41'0 0.0
2017-Dec-03 22:59N 45°36' W 122°41'0 0.0
2017-Dec-03 21:47N 45°36' W 122°41'0 0.0
2017-Dec-03 21:26N 45°36' W 122°41'0 0.0
2017-Dec-03 20:53N 45°36' W 122°41'0 0.0
2017-Dec-03 20:20N 45°36' W 122°41'0 0.0
2017-Dec-03 19:50N 45°36' W 122°41'0 0.0
2017-Dec-03 19:29N 45°36' W 122°41'0 0.0
2017-Dec-03 18:56N 45°36' W 122°41'0 0.0
2017-Dec-03 18:23N 45°36' W 122°41'0 0.0
2017-Dec-03 17:59N 45°36' W 122°41'0 0.0
2017-Dec-03 17:29N 45°36' W 122°41'0 0.0
2017-Dec-03 16:56N 45°36' W 122°41'0 0.0
2017-Dec-03 16:26N 45°36' W 122°41'0 0.0
2017-Dec-03 15:59N 45°36' W 122°41'0 0.0
2017-Dec-03 15:27N 45°36' W 122°41'0 0.0
2017-Dec-03 14:59N 45°36' W 122°41'0 0.0
2017-Dec-03 14:29N 45°36' W 122°41'0 0.0
2017-Dec-03 13:56N 45°36' W 122°41'0 0.0
2017-Dec-03 13:26N 45°36' W 122°41'0 0.0
2017-Dec-03 12:56N 45°36' W 122°41'0 0.0
2017-Dec-03 12:08N 45°36' W 122°41'0 0.0
2017-Dec-03 11:59N 45°36' W 122°41'0 0.0
2017-Dec-03 11:20N 45°36' W 122°41'0 0.0
2017-Dec-03 10:53N 45°36' W 122°41'0 0.0
2017-Dec-03 10:29N 45°36' W 122°41'0 0.0
2017-Dec-03 09:56N 45°36' W 122°41'0 0.0
2017-Dec-03 09:29N 45°36' W 122°41'0 0.0
2017-Dec-03 08:53N 45°36' W 122°41'0 0.0
2017-Dec-03 08:29N 45°36' W 122°41'0 0.0
2017-Dec-03 07:59N 45°36' W 122°41'0 0.0
2017-Dec-03 07:29N 45°36' W 122°41'0 0.0
2017-Dec-03 06:53N 45°36' W 122°41'0 0.0
2017-Dec-03 06:29N 45°36' W 122°41'0 0.0
2017-Dec-03 05:56N 45°36' W 122°41'0 0.0
2017-Dec-03 05:29N 45°36' W 122°41'0 0.0
2017-Dec-03 04:59N 45°36' W 122°41'0 0.0
2017-Dec-03 04:29N 45°36' W 122°41'0 0.0
2017-Dec-03 03:56N 45°36' W 122°41'0 0.0
2017-Dec-03 03:29N 45°36' W 122°41'0 0.0
2017-Dec-03 02:53N 45°36' W 122°41'0 0.0
2017-Dec-03 02:29N 45°36' W 122°41'0 0.0
2017-Dec-03 01:59N 45°36' W 122°41'0 0.0
2017-Dec-03 01:29N 45°36' W 122°41'0 0.0
2017-Dec-03 00:59N 45°36' W 122°41'0 0.0
2017-Dec-03 00:29N 45°36' W 122°41'0 0.0
2017-Dec-02 23:56N 45°36' W 122°41'0 0.0
2017-Dec-02 23:29N 45°36' W 122°41'0 0.0
2017-Dec-02 22:56N 45°36' W 122°41'0 0.0
2017-Dec-02 22:26N 45°36' W 122°41'0 0.0
2017-Dec-02 21:50N 45°36' W 122°41'0 0.0
2017-Dec-02 21:23N 45°36' W 122°41'0 0.0
2017-Dec-02 20:56N 45°36' W 122°41'0 0.0
2017-Dec-02 20:29N 45°36' W 122°41'0 0.0
2017-Dec-02 19:59N 45°36' W 122°41'0 0.0
2017-Dec-02 19:08N 45°36' W 122°41'0 0.0
2017-Dec-02 18:59N 45°36' W 122°41'0 0.0
2017-Dec-02 18:29N 45°36' W 122°41'0 0.0
2017-Dec-02 17:59N 45°36' W 122°41'0 0.0
2017-Dec-02 17:26N 45°36' W 122°41'0 0.0
2017-Dec-02 16:59N 45°36' W 122°41'0 0.0
2017-Dec-02 16:29N 45°36' W 122°41'0 0.0
2017-Dec-02 15:56N 45°36' W 122°41'0 0.0
2017-Dec-02 15:29N 45°36' W 122°41'0 0.0
2017-Dec-02 11:02N 45°36' W 122°41'0 0.0
2017-Dec-02 10:38N 45°36' W 122°41'0 0.0
2017-Dec-02 10:26N 45°36' W 122°41'0 0.0
2017-Dec-02 09:17N 45°36' W 122°41'0 0.0
2017-Dec-02 08:56N 45°36' W 122°41'0 0.0
2017-Dec-02 06:59N 45°36' W 122°41'0 0.0
2017-Dec-02 06:02N 45°36' W 122°41'0 0.0
2017-Dec-02 05:50N 45°36' W 122°41'0 0.0
2017-Dec-02 05:08N 45°36' W 122°41'0 0.0
2017-Dec-02 04:56N 45°36' W 122°41'0 0.0
2017-Dec-02 04:23N 45°36' W 122°41'0 0.0
2017-Dec-02 01:05N 45°36' W 122°41'0 0.0
2017-Dec-02 00:56N 45°36' W 122°41'0 0.0
2017-Dec-02 00:29N 45°36' W 122°41'0 0.0
2017-Dec-01 23:44N 45°36' W 122°41'0 0.0
2017-Dec-01 22:56N 45°36' W 122°41'0 0.0
2017-Dec-01 22:29N 45°36' W 122°41'0 0.0
2017-Dec-01 21:53N 45°36' W 122°41'0 0.0
2017-Dec-01 21:26N 45°36' W 122°41'0 0.0
2017-Dec-01 20:59N 45°36' W 122°41'0 0.0
2017-Dec-01 20:29N 45°36' W 122°41'0 0.0
2017-Dec-01 19:53N 45°36' W 122°41'0 0.0
2017-Dec-01 19:20N 45°36' W 122°41'0 0.0
2017-Dec-01 18:59N 45°36' W 122°41'0 0.0
2017-Dec-01 18:26N 45°36' W 122°41'0 0.0
2017-Dec-01 17:59N 45°36' W 122°41'0 0.0
2017-Dec-01 17:26N 45°36' W 122°41'  

Dump ship's entire track history